createdAt,value
2022-12-27T00:02:26.478Z,95756.66
2022-12-27T00:04:54.302Z,95757.38
2022-12-27T00:07:21.227Z,95694.38
2022-12-27T00:09:48.369Z,95749.75
2022-12-27T00:12:15.328Z,95743.38
2022-12-27T00:14:42.444Z,95757.22
2022-12-27T00:17:09.359Z,95723.09
2022-12-27T00:19:36.557Z,95720.66
2022-12-27T00:22:05.383Z,95742.94
2022-12-27T00:24:32.537Z,95743.31
2022-12-27T00:26:59.549Z,95731.47
2022-12-27T00:29:26.613Z,95737.56
2022-12-27T00:31:53.515Z,95736.75
2022-12-27T00:34:20.791Z,95745.03
2022-12-27T00:36:47.968Z,95756.22
2022-12-27T00:39:14.849Z,95742.19
2022-12-27T00:41:41.759Z,95764.88
2022-12-27T00:44:09.432Z,95772.16
2022-12-27T00:46:36.697Z,95767.22
2022-12-27T00:49:03.677Z,95765.78
2022-12-27T00:51:30.679Z,95763.41
2022-12-27T00:53:58.104Z,95775.59
2022-12-27T00:56:30.979Z,95785.88
2022-12-27T00:59:00.955Z,95797.06
2022-12-27T01:01:33.137Z,95775.69
2022-12-27T01:04:01.207Z,95786.44
2022-12-27T01:06:32.289Z,95768.41
2022-12-27T01:09:00.860Z,95784.16
2022-12-27T01:11:28.588Z,95782.34
2022-12-27T01:13:57.591Z,95787.63
2022-12-27T01:16:26.339Z,95759.22
2022-12-27T01:18:53.735Z,95758.59
2022-12-27T01:21:25.022Z,95758.22
2022-12-27T01:23:52.362Z,95759.22
2022-12-27T01:26:24.173Z,95733.91
2022-12-27T01:28:56.023Z,95763.13
2022-12-27T01:31:28.242Z,95754.31
2022-12-27T01:33:57.717Z,95751.66
2022-12-27T01:36:26.345Z,95703.44
2022-12-27T01:38:53.684Z,95748.38
2022-12-27T01:41:47.310Z,95764.22
2022-12-27T01:44:51.492Z,95763.31
2022-12-27T01:47:26.839Z,95761.09
2022-12-27T01:50:20.151Z,95761.56
2022-12-27T01:52:51.119Z,95756.94
2022-12-27T01:55:23.100Z,95746.91
2022-12-27T01:57:52.270Z,95673.44
2022-12-27T02:00:19.688Z,95740.41
2022-12-27T02:02:47.072Z,95748.31
2022-12-27T02:05:17.459Z,95752.03
2022-12-27T02:08:28.885Z,95752.66
2022-12-27T02:10:57.571Z,95733.66
2022-12-27T02:13:24.870Z,95718.38
2022-12-27T02:15:52.085Z,95721.00
2022-12-27T02:18:19.137Z,95745.56
2022-12-27T02:21:07.543Z,95747.56
2022-12-27T02:24:06.890Z,95752.66
2022-12-27T02:26:53.540Z,95753.19
2022-12-27T02:29:32.714Z,95747.28
2022-12-27T02:32:24.245Z,95758.66
2022-12-27T02:35:19.660Z,95759.84
2022-12-27T02:37:52.997Z,95742.72
2022-12-27T02:40:42.015Z,95754.94
2022-12-27T02:43:31.265Z,95750.47
2022-12-27T02:46:23.060Z,95765.47
2022-12-27T02:49:16.811Z,95743.81
2022-12-27T02:52:35.851Z,95753.28
2022-12-27T02:55:05.816Z,95751.47
2022-12-27T02:57:48.325Z,95752.19
2022-12-27T03:00:42.907Z,95738.72
2022-12-27T03:03:49.560Z,95754.47
2022-12-27T03:06:40.848Z,95761.38
2022-12-27T03:09:38.741Z,95761.19
2022-12-27T03:12:33.738Z,95752.34
2022-12-27T03:15:30.456Z,95742.88
2022-12-27T03:18:11.567Z,95767.34
2022-12-27T03:21:00.536Z,95746.34
2022-12-27T03:23:47.134Z,95750.63
2022-12-27T03:26:15.938Z,95751.16
2022-12-27T03:29:03.565Z,95753.97
2022-12-27T03:31:55.298Z,95750.41
2022-12-27T03:34:35.741Z,95767.78
2022-12-27T03:37:34.869Z,95741.56
2022-12-27T03:40:17.942Z,95760.59
2022-12-27T03:43:10.346Z,95738.31
2022-12-27T03:46:35.281Z,95759.78
2022-12-27T03:49:30.549Z,95716.78
2022-12-27T03:52:45.846Z,95764.94
2022-12-27T03:55:13.497Z,95757.44
2022-12-27T03:57:40.665Z,95766.81
2022-12-27T04:00:09.090Z,95754.28
2022-12-27T04:02:43.872Z,95748.25
2022-12-27T04:05:11.880Z,95750.38
2022-12-27T04:07:38.839Z,95749.44
2022-12-27T04:10:24.857Z,95765.28
2022-12-27T04:13:10.394Z,95751.19
2022-12-27T04:15:56.012Z,95771.28
2022-12-27T04:18:41.429Z,95775.41
2022-12-27T04:21:27.812Z,95771.22
2022-12-27T04:24:13.365Z,95780.69
2022-12-27T04:26:59.001Z,95784.31
2022-12-27T04:29:44.728Z,95767.41
2022-12-27T04:32:29.934Z,95741.53
2022-12-27T04:34:57.061Z,95771.56
2022-12-27T04:37:24.246Z,95761.94
2022-12-27T04:40:09.767Z,95755.41
2022-12-27T04:42:57.223Z,95789.66
2022-12-27T04:45:43.124Z,95751.31
2022-12-27T04:48:33.914Z,95807.59
2022-12-27T04:51:19.976Z,95790.53
2022-12-27T04:54:05.517Z,95807.34
2022-12-27T04:56:32.617Z,95803.34
2022-12-27T04:59:18.095Z,95806.63
2022-12-27T05:02:03.685Z,95813.72
2022-12-27T05:04:33.007Z,95804.34
2022-12-27T05:07:20.612Z,95792.41
2022-12-27T05:10:06.770Z,95789.25
2022-12-27T05:12:52.722Z,95782.00
2022-12-27T05:15:19.661Z,95731.34
2022-12-27T05:17:46.683Z,95745.25
2022-12-27T05:20:14.801Z,95763.66
2022-12-27T05:23:00.426Z,95775.13
2022-12-27T05:25:37.383Z,95772.03
2022-12-27T05:28:06.752Z,95768.22
2022-12-27T05:30:35.022Z,95758.97
2022-12-27T05:33:02.735Z,95731.75
2022-12-27T05:35:30.748Z,95748.59
2022-12-27T05:37:57.880Z,95755.34
2022-12-27T05:40:25.650Z,95750.16
2022-12-27T05:42:53.279Z,95760.84
2022-12-27T05:45:20.755Z,95758.22
2022-12-27T05:47:48.087Z,95767.97
2022-12-27T05:50:15.056Z,95772.00
2022-12-27T05:52:41.937Z,95760.22
2022-12-27T05:55:09.451Z,95764.72
2022-12-27T05:57:36.342Z,95794.03
2022-12-27T06:00:05.601Z,95794.56
2022-12-27T06:02:40.948Z,95767.16
2022-12-27T06:05:09.481Z,95786.69
2022-12-27T06:07:38.001Z,95802.41
2022-12-27T06:10:07.049Z,95793.19
2022-12-27T06:12:34.084Z,95807.66
2022-12-27T06:15:01.234Z,95808.28
2022-12-27T06:17:30.445Z,95794.28
2022-12-27T06:19:57.800Z,95799.69
2022-12-27T06:22:25.006Z,95814.50
2022-12-27T06:24:52.024Z,95792.31
2022-12-27T06:27:19.213Z,95810.56
2022-12-27T06:29:46.241Z,95795.59
2022-12-27T06:32:13.418Z,95815.44
2022-12-27T06:34:40.509Z,95809.19
2022-12-27T06:37:07.454Z,95749.03
2022-12-27T06:39:34.569Z,95808.19
2022-12-27T06:42:01.666Z,95804.41
2022-12-27T06:44:28.772Z,95806.34
2022-12-27T06:46:55.653Z,95812.53
2022-12-27T06:49:22.643Z,95803.16
2022-12-27T06:51:55.690Z,95802.84
2022-12-27T06:54:26.358Z,95782.81
2022-12-27T06:56:53.354Z,95807.34
2022-12-27T06:59:20.422Z,95802.41
2022-12-27T07:01:47.524Z,95745.31
2022-12-27T07:04:14.828Z,95808.41
2022-12-27T07:06:41.824Z,95807.06
2022-12-27T07:09:08.921Z,95783.94
2022-12-27T07:11:37.131Z,95802.75
2022-12-27T07:14:04.789Z,95780.34
2022-12-27T07:16:32.152Z,95783.38
2022-12-27T07:19:00.195Z,95782.50
2022-12-27T07:21:29.122Z,95750.13
2022-12-27T07:23:57.005Z,95772.13
2022-12-27T07:26:30.233Z,95793.97
2022-12-27T07:29:00.084Z,95743.94
2022-12-27T07:31:29.942Z,95790.63
2022-12-27T07:33:58.386Z,95773.50
2022-12-27T07:36:28.595Z,95781.06
2022-12-27T07:38:56.281Z,95807.47
2022-12-27T07:41:24.751Z,95809.63
2022-12-27T07:43:53.353Z,95776.59
2022-12-27T07:46:22.984Z,95803.00
2022-12-27T07:48:50.228Z,95769.34
2022-12-27T07:51:17.927Z,95766.06
2022-12-27T07:53:47.552Z,95793.28
2022-12-27T07:56:23.382Z,95659.34
2022-12-27T07:58:53.795Z,95793.72
2022-12-27T08:01:22.581Z,95795.34
2022-12-27T08:03:49.910Z,95800.25
2022-12-27T08:06:20.113Z,95805.66
2022-12-27T08:08:47.650Z,95803.06
2022-12-27T08:11:14.546Z,95808.19
2022-12-27T08:13:42.274Z,95798.53
2022-12-27T08:16:16.235Z,95813.16
2022-12-27T08:18:43.229Z,95794.16
2022-12-27T08:21:10.459Z,95805.81
2022-12-27T08:23:37.627Z,95809.59
2022-12-27T08:26:06.535Z,95811.03
2022-12-27T08:28:33.824Z,95809.00
2022-12-27T08:31:01.295Z,95808.78
2022-12-27T08:33:28.760Z,95789.53
2022-12-27T08:35:57.253Z,95794.25
2022-12-27T08:38:25.018Z,95787.91
2022-12-27T08:40:52.025Z,95786.59
2022-12-27T08:43:19.177Z,95785.47
2022-12-27T08:45:46.198Z,95780.25
2022-12-27T08:48:13.267Z,95792.97
2022-12-27T08:50:40.195Z,95758.31
2022-12-27T08:53:07.379Z,95797.81
2022-12-27T08:55:34.803Z,95778.91
2022-12-27T08:58:09.197Z,95788.81
2022-12-27T09:00:41.158Z,95763.78
2022-12-27T09:03:09.373Z,95768.53
2022-12-27T09:05:41.468Z,95709.91
2022-12-27T09:08:09.701Z,95782.53
2022-12-27T09:10:37.068Z,95753.59
2022-12-27T09:13:04.404Z,95769.16
2022-12-27T09:15:31.597Z,95760.81
2022-12-27T09:17:58.650Z,95765.91
2022-12-27T09:20:25.566Z,95735.75
2022-12-27T09:22:52.540Z,95739.66
2022-12-27T09:25:19.572Z,95746.00
2022-12-27T09:27:46.612Z,95723.13
2022-12-27T09:30:14.131Z,95736.81
2022-12-27T09:32:41.093Z,95731.91
2022-12-27T09:35:08.504Z,95703.56
2022-12-27T09:37:35.380Z,95716.59
2022-12-27T09:40:02.491Z,95722.53
2022-12-27T09:45:26.177Z,95721.28
2022-12-27T09:47:58.801Z,95736.97
2022-12-27T09:50:38.744Z,95718.56
2022-12-27T09:53:20.583Z,95708.75
2022-12-27T09:55:55.800Z,95721.31
2022-12-27T09:58:54.653Z,95735.81
2022-12-27T10:01:35.305Z,95730.25
2022-12-27T10:04:03.695Z,95708.38
2022-12-27T10:06:49.270Z,95701.16
2022-12-27T10:09:35.253Z,95706.47
2022-12-27T10:12:40.085Z,95695.22
2022-12-27T10:15:07.027Z,95684.72
2022-12-27T10:17:53.599Z,95676.09
2022-12-27T10:20:45.917Z,95669.09
2022-12-27T10:23:19.295Z,95674.34
2022-12-27T10:25:47.758Z,95675.97
2022-12-27T10:28:25.645Z,95676.00
2022-12-27T10:30:53.129Z,95664.88
2022-12-27T10:33:25.450Z,95657.22
2022-12-27T10:35:52.693Z,95681.47
2022-12-27T10:38:20.746Z,95663.75
2022-12-27T10:41:32.178Z,95673.88
2022-12-27T10:43:59.799Z,95680.31
2022-12-27T10:46:33.001Z,95684.34
2022-12-27T10:51:52.440Z,95664.16
2022-12-27T10:54:27.395Z,95671.84
2022-12-27T10:56:55.689Z,95665.03
2022-12-27T10:59:25.908Z,95662.00
2022-12-27T11:02:19.044Z,95650.91
2022-12-27T11:04:58.098Z,95653.78
2022-12-27T11:07:33.835Z,95656.63
2022-12-27T11:10:15.727Z,95660.03
2022-12-27T11:13:03.590Z,95656.06
2022-12-27T11:15:34.850Z,95631.03
2022-12-27T11:18:10.113Z,95657.13
2022-12-27T11:20:44.897Z,95643.50
2022-12-27T11:23:15.447Z,95632.97
2022-12-27T11:26:04.416Z,95639.81
2022-12-27T11:28:42.566Z,95646.00
2022-12-27T11:31:13.187Z,95630.56
2022-12-27T11:33:52.086Z,95640.09
2022-12-27T11:36:31.304Z,95640.69
2022-12-27T11:39:00.721Z,95654.63
2022-12-27T11:41:46.859Z,95658.94
2022-12-27T11:44:22.344Z,95647.81
2022-12-27T11:47:01.598Z,95650.50
2022-12-27T11:49:34.276Z,95651.19
2022-12-27T11:52:10.439Z,95658.63
2022-12-27T11:55:05.010Z,95655.59
2022-12-27T11:57:53.312Z,95652.41
2022-12-27T12:00:27.107Z,95653.47
2022-12-27T12:03:41.934Z,95642.66
2022-12-27T12:06:24.097Z,95658.53
2022-12-27T12:09:15.103Z,95648.31
2022-12-27T12:12:23.891Z,95655.75
2022-12-27T12:15:03.137Z,95652.41
2022-12-27T12:17:58.596Z,95647.13
2022-12-27T12:20:45.704Z,95638.47
2022-12-27T12:23:51.829Z,95644.41
2022-12-27T12:26:46.071Z,95631.91
2022-12-27T12:29:50.226Z,95648.09
2022-12-27T12:32:43.279Z,95646.81
2022-12-27T12:35:25.735Z,95655.97
2022-12-27T12:38:11.354Z,95658.84
2022-12-27T12:41:09.385Z,95661.28
2022-12-27T12:44:03.497Z,95655.59
2022-12-27T12:46:38.903Z,95664.78
2022-12-27T12:49:28.219Z,95660.81
2022-12-27T12:52:22.081Z,95657.38
2022-12-27T12:55:01.359Z,95666.09
2022-12-27T12:58:08.688Z,95669.66
2022-12-27T13:00:42.723Z,95677.69
2022-12-27T13:03:31.539Z,95669.81
2022-12-27T13:06:12.769Z,95676.31
2022-12-27T13:08:56.558Z,95684.59
2022-12-27T13:11:47.815Z,95686.94
2022-12-27T13:14:41.017Z,95666.94
2022-12-27T13:17:28.390Z,95670.13
2022-12-27T13:19:58.721Z,95689.78
2022-12-27T13:22:48.825Z,95694.66
2022-12-27T13:25:22.348Z,95697.72
2022-12-27T13:28:13.707Z,95709.91
2022-12-27T13:31:00.916Z,95709.34
2022-12-27T13:33:39.720Z,95715.81
2022-12-27T13:36:28.125Z,95723.72
2022-12-27T13:39:19.008Z,95721.28
2022-12-27T13:42:13.746Z,95733.59
2022-12-27T13:45:09.430Z,95742.09
2022-12-27T13:47:39.766Z,95734.19
2022-12-27T13:50:09.805Z,95740.34
2022-12-27T13:52:43.125Z,95741.63
2022-12-27T13:55:43.433Z,95742.41
2022-12-27T13:58:52.491Z,95749.88
2022-12-27T14:01:29.287Z,95738.56
2022-12-27T14:04:14.802Z,95730.53
2022-12-27T14:07:13.078Z,95747.13
2022-12-27T14:10:16.499Z,95746.56
2022-12-27T14:13:09.441Z,95746.69
2022-12-27T14:15:42.839Z,95753.91
2022-12-27T14:18:35.006Z,95748.09
2022-12-27T14:21:19.044Z,95722.28
2022-12-27T14:23:55.103Z,95751.56
2022-12-27T14:26:47.165Z,95754.41
2022-12-27T14:29:52.064Z,95752.28
2022-12-27T14:32:46.365Z,95763.34
2022-12-27T14:35:27.952Z,95773.66
2022-12-27T14:38:13.170Z,95772.97
2022-12-27T14:41:18.794Z,95768.31
2022-12-27T14:43:57.612Z,95772.03
2022-12-27T14:46:59.753Z,95771.22
2022-12-27T14:49:33.212Z,95773.22
2022-12-27T14:52:43.249Z,95767.97
2022-12-27T14:55:47.835Z,95779.53
2022-12-27T14:58:47.671Z,95779.06
2022-12-27T15:01:49.998Z,95777.44
2022-12-27T15:04:32.112Z,95775.13
2022-12-27T15:07:11.180Z,95780.91
2022-12-27T15:10:03.235Z,95773.47
2022-12-27T15:12:43.710Z,95773.53
2022-12-27T15:15:15.483Z,95782.94
2022-12-27T15:18:15.914Z,95770.13
2022-12-27T15:20:45.833Z,95787.63
2022-12-27T15:23:30.730Z,95791.06
2022-12-27T15:26:05.987Z,95779.84
2022-12-27T15:28:48.698Z,95786.88
2022-12-27T15:31:29.795Z,95797.50
2022-12-27T15:34:34.544Z,95794.38
2022-12-27T15:37:02.069Z,95784.91
2022-12-27T15:39:35.078Z,95806.22
2022-12-27T15:42:46.502Z,95813.72
2022-12-27T15:45:37.713Z,95809.53
2022-12-27T15:48:42.550Z,95800.56
2022-12-27T15:51:29.288Z,95826.03
2022-12-27T15:54:31.120Z,95807.28
2022-12-27T15:57:19.921Z,95811.66
2022-12-27T15:59:51.807Z,95812.03
2022-12-27T16:02:53.696Z,95809.38
2022-12-27T16:05:21.917Z,95803.50
2022-12-27T16:08:13.386Z,95804.84
2022-12-27T16:10:40.980Z,95801.50
2022-12-27T16:13:10.848Z,95812.53
2022-12-27T16:15:39.126Z,95822.94
2022-12-27T16:18:33.105Z,95777.28
2022-12-27T16:21:19.085Z,95814.78
2022-12-27T16:23:45.920Z,95808.47
2022-12-27T16:26:15.905Z,95807.78
2022-12-27T16:28:53.374Z,95814.09
2022-12-27T16:31:24.638Z,95805.56
2022-12-27T16:33:53.772Z,95803.50
2022-12-27T16:36:22.983Z,95797.13
2022-12-27T16:39:17.746Z,95819.44
2022-12-27T16:41:57.129Z,95824.56
2022-12-27T16:44:24.100Z,95829.69
2022-12-27T16:46:59.445Z,95838.94
2022-12-27T16:49:29.891Z,95829.47
2022-12-27T16:52:25.607Z,95838.88
2022-12-27T16:55:05.030Z,95842.59
2022-12-27T16:57:47.980Z,95837.47
2022-12-27T17:00:37.209Z,95840.06
2022-12-27T17:03:23.129Z,95842.91
2022-12-27T17:06:30.727Z,95835.56
2022-12-27T17:08:38.937Z,95836.66
2022-12-27T17:11:14.972Z,95854.84
2022-12-27T17:13:55.303Z,95864.34
2022-12-27T17:16:26.249Z,95837.22
2022-12-27T17:18:57.934Z,95864.91
2022-12-27T17:21:30.875Z,95862.34
2022-12-27T17:24:01.079Z,95863.53
2022-12-27T17:27:01.789Z,95867.88
2022-12-27T17:29:47.605Z,95867.28
2022-12-27T17:32:51.556Z,95844.88
2022-12-27T17:35:31.963Z,95858.25
2022-12-27T17:38:18.354Z,95870.03
2022-12-27T17:41:15.102Z,95864.09
2022-12-27T17:44:17.053Z,95869.81
2022-12-27T17:47:15.236Z,95868.75
2022-12-27T17:49:43.281Z,95877.28
2022-12-27T17:52:38.118Z,95861.50
2022-12-27T17:55:35.652Z,95852.97
2022-12-27T17:58:06.548Z,95830.47
2022-12-27T18:00:37.798Z,95853.44
2022-12-27T18:03:11.951Z,95823.78
2022-12-27T18:05:43.921Z,95840.78
2022-12-27T18:08:25.294Z,95856.84
2022-12-27T18:10:52.306Z,95854.38
2022-12-27T18:13:22.759Z,95858.13
2022-12-27T18:15:50.684Z,95866.06
2022-12-27T18:18:29.432Z,95865.69
2022-12-27T18:20:59.827Z,95870.84
2022-12-27T18:23:27.008Z,95840.91
2022-12-27T18:25:57.521Z,95869.81
2022-12-27T18:28:35.074Z,95876.41
2022-12-27T18:31:40.730Z,95879.56
2022-12-27T18:34:13.361Z,95868.91
2022-12-27T18:36:46.857Z,95874.31
2022-12-27T18:39:28.986Z,95869.16
2022-12-27T18:41:58.298Z,95863.53
2022-12-27T18:44:29.647Z,95873.63
2022-12-27T18:47:00.574Z,95878.91
2022-12-27T18:49:37.893Z,95875.66
2022-12-27T18:52:14.024Z,95868.19
2022-12-27T18:54:41.178Z,95793.78
2022-12-27T18:57:31.987Z,95887.03
2022-12-27T19:00:19.208Z,95862.94
2022-12-27T19:02:46.304Z,95883.53
2022-12-27T19:05:13.196Z,95880.28
2022-12-27T19:07:41.770Z,95873.53
2022-12-27T19:10:20.839Z,95878.03
2022-12-27T19:12:48.485Z,95882.75
2022-12-27T19:15:18.438Z,95885.88
2022-12-27T19:17:53.289Z,95882.44
2022-12-27T19:20:29.643Z,95894.53
2022-12-27T19:22:59.381Z,95911.34
2022-12-27T19:25:30.939Z,95921.63
2022-12-27T19:28:05.195Z,95932.09
2022-12-27T19:30:46.193Z,95939.69
2022-12-27T19:33:20.823Z,95944.41
2022-12-27T19:35:47.930Z,95928.56
2022-12-27T19:38:20.807Z,95941.53
2022-12-27T19:40:50.319Z,95956.00
2022-12-27T19:43:18.372Z,95954.41
2022-12-27T19:45:45.783Z,95931.94
2022-12-27T19:48:12.887Z,95950.38
2022-12-27T19:50:50.569Z,95958.16
2022-12-27T19:53:21.024Z,95952.69
2022-12-27T19:55:48.389Z,95938.38
2022-12-27T19:58:21.900Z,95942.44
2022-12-27T20:00:49.238Z,95939.00
2022-12-27T20:03:16.558Z,95941.00
2022-12-27T20:06:13.765Z,95961.63
2022-12-27T20:08:44.789Z,95958.00
2022-12-27T20:11:15.525Z,95963.72
2022-12-27T20:13:42.678Z,95934.69
2022-12-27T20:16:12.418Z,95955.72
2022-12-27T20:18:40.902Z,95931.22
2022-12-27T20:21:11.352Z,95937.97
2022-12-27T20:23:38.834Z,95950.03
2022-12-27T20:26:05.783Z,95949.22
2022-12-27T20:28:33.180Z,95949.41
2022-12-27T20:31:05.792Z,95917.13
2022-12-27T20:33:33.037Z,95945.75
2022-12-27T20:35:59.963Z,95954.34
2022-12-27T20:38:27.348Z,95966.19
2022-12-27T20:40:54.311Z,95965.59
2022-12-27T20:43:21.425Z,95970.91
2022-12-27T20:45:48.745Z,95956.59
2022-12-27T20:48:15.791Z,95955.56
2022-12-27T20:50:42.633Z,95957.00
2022-12-27T20:53:09.751Z,95961.06
2022-12-27T20:55:36.785Z,95990.97
2022-12-27T20:58:05.979Z,95972.53
2022-12-27T21:00:32.999Z,95990.94
2022-12-27T21:03:00.287Z,95997.50
2022-12-27T21:05:27.697Z,95978.69
2022-12-27T21:07:54.762Z,95996.91
2022-12-27T21:10:21.751Z,95992.78
2022-12-27T21:12:48.697Z,96000.16
2022-12-27T21:15:17.618Z,95998.75
2022-12-27T21:17:44.630Z,95999.13
2022-12-27T21:20:12.083Z,96007.13
2022-12-27T21:22:39.325Z,95979.09
2022-12-27T21:25:06.608Z,95988.69
2022-12-27T21:27:33.706Z,95985.44
2022-12-27T21:30:00.802Z,95953.56
2022-12-27T21:32:27.722Z,95997.50
2022-12-27T21:34:54.913Z,95992.81
2022-12-27T21:37:22.071Z,96018.97
2022-12-27T21:39:49.048Z,96015.91
2022-12-27T21:42:16.004Z,96022.22
2022-12-27T21:44:42.896Z,95999.31
2022-12-27T21:47:09.936Z,96030.81
2022-12-27T21:49:40.470Z,95996.88
2022-12-27T21:52:07.665Z,96032.66
2022-12-27T21:54:35.420Z,96044.66
2022-12-27T21:57:03.236Z,96018.09
2022-12-27T21:59:30.144Z,96039.34
2022-12-27T22:01:57.395Z,96006.44
2022-12-27T22:04:24.527Z,96009.91
2022-12-27T22:06:51.505Z,96014.38
2022-12-27T22:09:19.372Z,96024.25
2022-12-27T22:11:47.683Z,96029.00
2022-12-27T22:14:14.932Z,96002.41
2022-12-27T22:16:42.072Z,96019.19
2022-12-27T22:19:12.149Z,96019.00
2022-12-27T22:21:41.293Z,96029.00
2022-12-27T22:24:12.933Z,96014.06
2022-12-27T22:26:41.898Z,96038.81
2022-12-27T22:29:08.983Z,96005.06
2022-12-27T22:31:37.806Z,96029.19
2022-12-27T22:34:05.732Z,96013.25
2022-12-27T22:36:33.279Z,96036.78
2022-12-27T22:39:00.638Z,96026.34
2022-12-27T22:41:34.227Z,96027.16
2022-12-27T22:44:11.720Z,96032.47
2022-12-27T22:47:07.016Z,96017.13
2022-12-27T22:49:26.502Z,96001.78
2022-12-27T22:51:53.449Z,96017.75
2022-12-27T22:54:20.495Z,96005.28
2022-12-27T22:57:07.458Z,96020.84
2022-12-27T22:59:34.390Z,96023.06
2022-12-27T23:02:01.658Z,96014.06
2022-12-27T23:04:28.826Z,96016.13
2022-12-27T23:06:55.911Z,95969.06
2022-12-27T23:09:22.819Z,96001.41
2022-12-27T23:11:49.843Z,96020.84
2022-12-27T23:14:17.089Z,96033.94
2022-12-27T23:16:46.491Z,96028.84
2022-12-27T23:19:16.636Z,96032.28
2022-12-27T23:21:43.716Z,96025.94
2022-12-27T23:24:11.354Z,96017.16
2022-12-27T23:26:39.539Z,96029.63
2022-12-27T23:29:07.176Z,96025.34
2022-12-27T23:31:35.457Z,96009.56
2022-12-27T23:34:27.650Z,96000.38
2022-12-27T23:36:59.418Z,96023.50
2022-12-27T23:39:26.597Z,96016.75
2022-12-27T23:41:53.669Z,96027.75
2022-12-27T23:44:34.198Z,96010.78
2022-12-27T23:47:06.348Z,95984.44
2022-12-27T23:49:34.037Z,96011.03
2022-12-27T23:52:01.033Z,96004.06
2022-12-27T23:54:28.101Z,95988.69
2022-12-27T23:56:54.971Z,95992.81
2022-12-27T23:59:21.935Z,96008.34
